Terminal Aerodrome Forecast
Issued by NWS

Home | Current Version | Previous Version | Graphics & Text | Print | Product List | Glossary On
Versions: 1 2 3 4 5 6 7 8 9 10 11 12 13 14 15 16 17 18 19 20
000
FTUS43 KICT 300857 AAB
TAFRSL
TAF AMD
KRSL 300857Z 3009/3106 16005KT 1SM BR SKC
      TEMPO 3010/3014 1/4SM FG
     FM301500 15008KT P6SM SKC=

USA.gov is the U.S. government's official web portal to all federal, state and local government web resources and services.